Portada
METAR-TAF:

METAR-TAF

Aeroports :

Rasht, Iran

latitud: 37-12N, longitud: 049-38E, altitud: -7 m

Observació

L'informe es va fer fa 22 minuts, a les 15:30 UTC
Vent calma
Temperatura 15°C
Humitat 88%
Pressió 1016 hPa
Visibilitat 10 km o més
Escasses núvols a una alçada de 1500 ft, Cumulus congestus.
Núvols disperses a una alçada de 8000 ft
Núvols disperses a una alçada de 17000 ft

METAR: OIGG 131530Z 00000KT 9999 FEW015TCU SCT080 SCT170 15/13 Q1016

Hora: 20:22 (15:52 UTC)

Pronòstic

L'informe es va fer fa 1 hora i 42 minuts, a les 14:10 UTC
Pronòstic vàlid del 13 a les 15 UTC al 13 a les 24 UTC
Vent 8 kt del Nord/Nord-Oest
Visibilitat: 6000 m
Escasses núvols a una alçada de 1500 ft, Cumulonimbus.
Cel ennuvolat a una alçada de 7000 ft
Temporalment
l' 13 a les 18 UTC al 13 a les 21 UTC
Visibilitat: 0700 m
Cel ennuvolat a una alçada de 500 ft
Cel ennuvolat a una alçada de 7000 ft
boira

TAF: OIGG 131410Z 1315/1324 34008KT 6000 FEW015CB SCT20 BKN070 TEMPO 1318/1321 0700 FG BKN005 BKN070

Observacions i pronòstics meteorològics de més de 4000 aeroports (METAR i TAF).

Les estacions disponibles són els punts grocs i vermells al mapa.

Posi el ratolí al punt desitjat per veure el nom de l'estació.

Feu clic per veure les observacions i els pronòstics meteorològics.

Per canviar el mapa: feu clic els botons verds amb una creu de color negre per apropar; al botó verd amb un guió per allunyar la imatge; o en les fletxes verdes per a mapes adjacents.


METAR-TAF: